Time;durP1;ratioP1;P1;durP2;ratioP2;P2;SDS_P1;SDS_P2;PMS_P1;PMS_P2;Temp;Humidity;BMP_temperature;BMP_pressure;BME280_temperature;BME280_humidity;BME280_pressure;Samples;Min_cycle;Max_cycle;Signal;HPM_P1;HPM_P2
2022/02/02 00:01:56;;;;;;;60.00;4.30;;;;;;;;;;5054771;28;20459;-70
2022/02/02 00:04:27;;;;;;;59.95;4.07;;;;;;;;;;5054997;28;20649;-70
2022/02/02 00:07:05;;;;;;;59.67;4.23;;;;;;;;;;5054917;28;20210;-70
2022/02/02 00:09:32;;;;;;;59.90;3.90;;;;;;;;;;5054598;28;20459;-69
2022/02/02 00:12:13;;;;;;;60.90;3.90;;;;;;;;;;5054505;28;20488;-70
2022/02/02 00:14:52;;;;;;;59.30;4.10;;;;;;;;;;5054451;28;20468;-69
2022/02/02 00:17:32;;;;;;;60.77;4.60;;;;;;;;;;5054418;28;20452;-69
2022/02/02 00:20:10;;;;;;;62.03;5.10;;;;;;;;;;5054555;28;20464;-70
2022/02/02 00:22:41;;;;;;;61.37;4.30;;;;;;;;;;5054102;28;20515;-70
2022/02/02 00:25:14;;;;;;;61.67;4.50;;;;;;;;;;5054464;28;20437;-70
2022/02/02 00:27:43;;;;;;;60.73;4.47;;;;;;;;;;5053796;28;20925;-70
2022/02/02 00:30:15;;;;;;;61.93;4.47;;;;;;;;;;5053710;28;20842;-70
2022/02/02 00:32:58;;;;;;;59.33;3.93;;;;;;;;;;5054301;28;20453;-70
2022/02/02 00:35:30;;;;;;;60.00;4.20;;;;;;;;;;5053962;28;20557;-70
2022/02/02 00:37:58;;;;;;;60.37;4.10;;;;;;;;;;5053823;28;20495;-70
2022/02/02 00:40:25;;;;;;;61.57;4.40;;;;;;;;;;5054135;28;20455;-70
2022/02/02 00:42:53;;;;;;;62.83;4.40;;;;;;;;;;5053962;28;20488;-70
2022/02/02 00:45:20;;;;;;;62.30;3.88;;;;;;;;;;5054065;28;20536;-70
2022/02/02 00:47:51;;;;;;;59.77;3.60;;;;;;;;;;5053613;28;20300;-72
2022/02/02 00:50:18;;;;;;;58.97;3.73;;;;;;;;;;5054221;28;20457;-70
2022/02/02 00:52:50;;;;;;;60.90;4.30;;;;;;;;;;5053594;28;20504;-70
2022/02/02 00:55:18;;;;;;;59.53;3.47;;;;;;;;;;5053915;28;20449;-70
2022/02/02 00:57:46;;;;;;;58.37;3.63;;;;;;;;;;5053524;28;20471;-70
2022/02/02 01:00:13;;;;;;;59.37;3.57;;;;;;;;;;5053656;28;20449;-70
2022/02/02 01:02:41;;;;;;;63.20;4.53;;;;;;;;;;5053376;28;20488;-70
2022/02/02 01:05:08;;;;;;;58.90;3.77;;;;;;;;;;5053855;28;20480;-70
2022/02/02 01:07:54;;;;;;;60.20;4.50;;;;;;;;;;5053580;28;20455;-70
2022/02/02 01:10:28;;;;;;;63.77;4.57;;;;;;;;;;5053595;28;20538;-70
2022/02/02 01:13:08;;;;;;;65.10;4.28;;;;;;;;;;5053333;28;20871;-69
2022/02/02 01:18:32;;;;;;;60.40;4.32;;;;;;;;;;5053119;28;20940;-69
2022/02/02 01:21:02;;;;;;;62.13;4.50;;;;;;;;;;5053441;28;20710;-71
2022/02/02 01:29:11;;;;;;;61.23;4.30;;;;;;;;;;5048219;28;20518;-71
2022/02/02 01:31:38;;;;;;;62.40;5.27;;;;;;;;;;5052999;28;20506;-71
2022/02/02 01:34:05;;;;;;;60.33;4.10;;;;;;;;;;5052876;28;20472;-71
2022/02/02 01:36:38;;;;;;;59.40;4.17;;;;;;;;;;5053525;28;20543;-71
2022/02/02 01:39:07;;;;;;;61.67;5.17;;;;;;;;;;5052753;28;20506;-70
2022/02/02 01:41:38;;;;;;;64.00;4.77;;;;;;;;;;5052834;28;20837;-71
2022/02/02 01:44:13;;;;;;;60.63;4.57;;;;;;;;;;5052568;28;20516;-71
2022/02/02 01:46:42;;;;;;;59.90;4.68;;;;;;;;;;5053158;28;20463;-70
2022/02/02 01:52:19;;;;;;;66.15;3.58;;;;;;;;;;5052705;28;20936;-70
2022/02/02 01:54:55;;;;;;;60.83;4.05;;;;;;;;;;5052718;28;20226;-70
2022/02/02 01:57:51;;;;;;;63.25;4.53;;;;;;;;;;5052525;28;20208;-69
2022/02/02 02:00:19;;;;;;;59.55;3.78;;;;;;;;;;5052801;28;20605;-70
2022/02/02 02:02:46;;;;;;;64.97;4.07;;;;;;;;;;5052175;28;20317;-70
2022/02/02 02:05:13;;;;;;;63.92;3.80;;;;;;;;;;5052327;28;20249;-70
2022/02/02 02:07:40;;;;;;;62.45;3.33;;;;;;;;;;5052575;28;20206;-70
2022/02/02 02:10:08;;;;;;;64.22;4.03;;;;;;;;;;5052241;28;20285;-71
2022/02/02 02:12:45;;;;;;;62.50;3.80;;;;;;;;;;5052248;28;20237;-70
2022/02/02 02:15:14;;;;;;;65.07;4.07;;;;;;;;;;5052638;28;20209;-70
2022/02/02 02:17:41;;;;;;;64.75;3.78;;;;;;;;;;5052067;28;20687;-70
2022/02/02 02:20:10;;;;;;;63.22;3.63;;;;;;;;;;5052048;28;20298;-70
2022/02/02 02:22:41;;;;;;;66.40;3.92;;;;;;;;;;5051815;28;20240;-70
2022/02/02 02:25:09;;;;;;;61.35;3.80;;;;;;;;;;5052186;28;20210;-70
2022/02/02 02:27:36;;;;;;;59.85;3.60;;;;;;;;;;5051993;28;20242;-70
2022/02/02 02:30:09;;;;;;;63.05;3.80;;;;;;;;;;5051903;28;20223;-70
2022/02/02 02:57:17;;;;;;;62.17;4.10;;;;;;;;;;5051639;28;20194;-70
2022/02/02 02:59:59;;;;;;;60.50;3.83;;;;;;;;;;5051776;28;20264;-70
2022/02/02 03:03:07;;;;;;;60.78;3.78;;;;;;;;;;5051450;28;20213;-70
2022/02/02 03:30:32;;;;;;;70.85;7.70;;;;;;;;;;5051505;28;20185;-70
2022/02/02 03:52:53;;;;;;;73.32;6.82;;;;;;;;;;5049324;28;20687;-71
2022/02/02 03:55:23;;;;;;;63.90;6.13;;;;;;;;;;5051078;28;20202;-70
2022/02/02 03:58:10;;;;;;;67.60;6.00;;;;;;;;;;5051581;28;20273;-70
2022/02/02 04:00:45;;;;;;;67.25;5.90;;;;;;;;;;5051185;28;20560;-70
2022/02/02 04:06:15;;;;;;;62.80;5.80;;;;;;;;;;5012864;28;20223;-70
2022/02/02 04:08:42;;;;;;;63.45;5.43;;;;;;;;;;5046166;28;20498;-69
2022/02/02 04:11:15;;;;;;;64.90;5.22;;;;;;;;;;5054722;28;20240;-69
2022/02/02 04:55:24;;;;;;;63.35;5.15;;;;;;;;;;5053880;28;20582;-69
2022/02/02 04:58:09;;;;;;;68.70;5.07;;;;;;;;;;5053832;28;20293;-70
2022/02/02 05:06:11;;;;;;;62.25;4.75;;;;;;;;;;5053675;28;20580;-70
2022/02/02 05:08:44;;;;;;;62.85;5.60;;;;;;;;;;5053756;28;20220;-70
2022/02/02 05:11:34;;;;;;;66.90;5.22;;;;;;;;;;5053849;28;20198;-70
2022/02/02 05:17:05;;;;;;;63.85;4.78;;;;;;;;;;5053523;28;20705;-70
2022/02/02 05:20:09;;;;;;;68.28;5.70;;;;;;;;;;5053443;28;20666;-70
2022/02/02 05:45:33;;;;;;;65.03;5.30;;;;;;;;;;5010839;28;20465;-70
2022/02/02 05:51:15;;;;;;;67.57;5.70;;;;;;;;;;5010977;28;20215;-70
2022/02/02 05:53:44;;;;;;;69.13;5.45;;;;;;;;;;5010845;28;20223;-70
2022/02/02 05:56:13;;;;;;;65.40;5.28;;;;;;;;;;5025808;28;20264;-70
2022/02/02 05:58:41;;;;;;;69.57;6.00;;;;;;;;;;5052568;28;20293;-70
2022/02/02 06:01:09;;;;;;;61.45;4.50;;;;;;;;;;5052933;28;20202;-70
2022/02/02 06:03:40;;;;;;;64.90;4.47;;;;;;;;;;5052681;28;20691;-70
2022/02/02 06:06:07;;;;;;;62.67;5.43;;;;;;;;;;5052709;28;20216;-70
2022/02/02 06:08:36;;;;;;;66.22;5.32;;;;;;;;;;5052656;28;20411;-70
2022/02/02 06:11:05;;;;;;;68.20;4.90;;;;;;;;;;5072603;28;20210;-72
2022/02/02 06:13:40;;;;;;;69.32;5.38;;;;;;;;;;5076018;28;20253;-69
2022/02/02 06:16:08;;;;;;;75.10;5.40;;;;;;;;;;5075401;28;20216;-69
2022/02/02 06:18:36;;;;;;;65.90;5.55;;;;;;;;;;5073262;28;20202;-70
2022/02/02 06:21:06;;;;;;;65.20;4.95;;;;;;;;;;5074517;28;20198;-69
2022/02/02 06:23:36;;;;;;;64.07;5.15;;;;;;;;;;5055301;28;20222;-70
2022/02/02 06:26:05;;;;;;;66.22;4.60;;;;;;;;;;5051919;28;20201;-69
2022/02/02 06:28:35;;;;;;;63.47;4.97;;;;;;;;;;5051780;28;20297;-69
2022/02/02 06:31:03;;;;;;;62.88;4.43;;;;;;;;;;5052381;28;20197;-70
2022/02/02 06:33:33;;;;;;;65.85;4.70;;;;;;;;;;5052143;28;20264;-70
2022/02/02 06:36:01;;;;;;;64.27;4.90;;;;;;;;;;5052007;28;20214;-69
2022/02/02 06:38:29;;;;;;;67.43;4.97;;;;;;;;;;5051650;28;20998;-69
2022/02/02 06:40:57;;;;;;;70.30;5.82;;;;;;;;;;5052026;28;20527;-69
2022/02/02 06:43:25;;;;;;;69.65;5.30;;;;;;;;;;5051677;28;20584;-69
2022/02/02 06:45:55;;;;;;;60.75;4.25;;;;;;;;;;5051865;28;20688;-70
2022/02/02 06:48:22;;;;;;;71.38;5.88;;;;;;;;;;5051763;28;20689;-69
2022/02/02 06:50:56;;;;;;;67.35;4.70;;;;;;;;;;5052179;28;20208;-69
2022/02/02 06:53:27;;;;;;;73.07;5.37;;;;;;;;;;5051678;28;20226;-69
2022/02/02 06:56:08;;;;;;;62.90;5.18;;;;;;;;;;5051855;28;20525;-69
2022/02/02 06:58:44;;;;;;;62.87;4.57;;;;;;;;;;5051694;28;20313;-69
2022/02/02 07:01:30;;;;;;;64.37;5.87;;;;;;;;;;5051710;28;20448;-69
2022/02/02 07:04:06;;;;;;;74.22;5.20;;;;;;;;;;5051658;28;20546;-70
2022/02/02 07:06:43;;;;;;;63.88;5.25;;;;;;;;;;5051615;28;20186;-69
2022/02/02 07:09:27;;;;;;;75.60;5.00;;;;;;;;;;5051521;28;20202;-69
2022/02/02 07:12:06;;;;;;;69.60;4.93;;;;;;;;;;5051810;28;20210;-69
2022/02/02 07:14:49;;;;;;;69.93;5.00;;;;;;;;;;5051455;28;20969;-70
2022/02/02 07:17:35;;;;;;;68.67;5.43;;;;;;;;;;5051585;28;20478;-69
2022/02/02 07:20:10;;;;;;;71.43;5.57;;;;;;;;;;5051577;28;21024;-69
2022/02/02 07:26:05;;;;;;;69.68;5.38;;;;;;;;;;5089302;28;21037;-70
2022/02/02 07:28:39;;;;;;;65.55;4.85;;;;;;;;;;5089194;28;20206;-70
2022/02/02 07:31:21;;;;;;;64.68;5.38;;;;;;;;;;5089266;28;20695;-70
2022/02/02 07:33:51;;;;;;;73.10;5.90;;;;;;;;;;5089413;28;20316;-69
2022/02/02 07:36:28;;;;;;;64.10;5.28;;;;;;;;;;5089467;28;20946;-70
2022/02/02 07:38:56;;;;;;;64.87;4.40;;;;;;;;;;5088985;28;20844;-70
2022/02/02 07:41:32;;;;;;;75.93;5.27;;;;;;;;;;5089145;28;20455;-70
2022/02/02 07:44:06;;;;;;;65.73;4.80;;;;;;;;;;5088850;28;20490;-70
2022/02/02 07:46:34;;;;;;;70.10;5.90;;;;;;;;;;5089342;28;20964;-70
2022/02/02 07:49:02;;;;;;;65.72;6.07;;;;;;;;;;5088832;28;20291;-70
2022/02/02 07:51:31;;;;;;;64.77;5.93;;;;;;;;;;5088967;28;20209;-70
2022/02/02 07:54:02;;;;;;;69.40;5.30;;;;;;;;;;5088817;28;20467;-70
2022/02/02 07:56:39;;;;;;;63.90;5.07;;;;;;;;;;5088732;28;20542;-70
2022/02/02 07:59:16;;;;;;;65.70;5.50;;;;;;;;;;5088629;28;20209;-70
2022/02/02 08:01:45;;;;;;;67.80;6.57;;;;;;;;;;5088964;28;20446;-70
2022/02/02 08:04:13;;;;;;;63.20;6.03;;;;;;;;;;5088518;28;20489;-70
2022/02/02 08:06:42;;;;;;;63.80;5.23;;;;;;;;;;5088676;28;20447;-71
2022/02/02 08:09:15;;;;;;;68.07;5.35;;;;;;;;;;5088492;28;20534;-70
2022/02/02 08:11:43;;;;;;;67.80;5.83;;;;;;;;;;5088845;28;20651;-71
2022/02/02 08:14:10;;;;;;;67.35;5.30;;;;;;;;;;5088551;28;20499;-71
2022/02/02 08:16:38;;;;;;;63.97;5.33;;;;;;;;;;5088486;28;20585;-71
2022/02/02 08:19:05;;;;;;;70.40;6.20;;;;;;;;;;5088191;28;20447;-71
2022/02/02 08:21:32;;;;;;;65.07;4.93;;;;;;;;;;5088810;28;20451;-71
2022/02/02 08:23:59;;;;;;;63.37;5.13;;;;;;;;;;5088064;28;20796;-71
2022/02/02 08:26:26;;;;;;;77.32;6.28;;;;;;;;;;5088498;28;20457;-70
2022/02/02 08:28:58;;;;;;;63.90;4.73;;;;;;;;;;5088092;28;20213;-70
2022/02/02 08:31:27;;;;;;;62.03;4.70;;;;;;;;;;5088681;28;20451;-71
2022/02/02 08:33:58;;;;;;;69.20;4.97;;;;;;;;;;5087884;28;20467;-71
2022/02/02 08:36:25;;;;;;;75.00;7.53;;;;;;;;;;5078101;28;20436;-70
2022/02/02 08:39:01;;;;;;;62.23;5.50;;;;;;;;;;5074408;28;20454;-71
2022/02/02 08:41:32;;;;;;;64.67;5.30;;;;;;;;;;5074541;28;20497;-71
2022/02/02 08:44:04;;;;;;;64.17;5.20;;;;;;;;;;5074255;28;20490;-71
2022/02/02 08:46:35;;;;;;;67.77;4.20;;;;;;;;;;5074939;28;20447;-70
2022/02/02 08:49:05;;;;;;;79.60;5.23;;;;;;;;;;5074217;28;20459;-71
2022/02/02 08:51:38;;;;;;;63.17;4.87;;;;;;;;;;5074460;28;20451;-71
2022/02/02 08:54:17;;;;;;;73.57;6.40;;;;;;;;;;5074263;28;20557;-71
2022/02/02 08:59:42;;;;;;;68.47;5.80;;;;;;;;;;5074036;28;20497;-71
2022/02/02 09:02:14;;;;;;;62.67;4.80;;;;;;;;;;5074272;28;20455;-71
2022/02/02 09:07:26;;;;;;;64.93;5.20;;;;;;;;;;5073691;28;20419;-72
2022/02/02 09:10:02;;;;;;;65.00;4.87;;;;;;;;;;5074173;28;20456;-71
2022/02/02 09:23:45;;;;;;;64.30;4.83;;;;;;;;;;5073446;28;20550;-71
2022/02/02 09:31:24;;;;;;;69.43;5.20;;;;;;;;;;5073896;28;20440;-71
2022/02/02 09:32:17;;;;;;;63.97;5.07;;;;;;;;;;5073382;28;20434;-71
2022/02/02 09:34:44;;;;;;;77.13;5.67;;;;;;;;;;5073607;28;20444;-71
2022/02/02 09:37:11;;;;;;;66.50;5.33;;;;;;;;;;5073250;28;20531;-71
2022/02/02 09:39:44;;;;;;;62.27;5.03;;;;;;;;;;5073315;28;20940;-71
2022/02/02 09:42:14;;;;;;;73.20;5.50;;;;;;;;;;5073321;28;20456;-71
2022/02/02 09:44:43;;;;;;;73.47;5.67;;;;;;;;;;5072859;28;20479;-72
2022/02/02 09:47:21;;;;;;;71.73;5.10;;;;;;;;;;5071995;28;20459;-72
2022/02/02 09:49:57;;;;;;;72.13;5.70;;;;;;;;;;5070968;28;20559;-71
2022/02/02 09:52:28;;;;;;;65.10;5.40;;;;;;;;;;5073170;28;20932;-72
2022/02/02 09:55:04;;;;;;;68.20;4.80;;;;;;;;;;5073076;28;20471;-72
2022/02/02 09:57:50;;;;;;;63.90;4.70;;;;;;;;;;5073089;28;20497;-72
2022/02/02 10:00:39;;;;;;;72.10;5.50;;;;;;;;;;5072985;28;20505;-72
2022/02/02 10:06:01;;;;;;;68.07;4.70;;;;;;;;;;5070817;28;20486;-73
2022/02/02 10:14:32;;;;;;;64.20;4.50;;;;;;;;;;5054644;28;20571;-72
2022/02/02 10:16:59;;;;;;;67.80;4.87;;;;;;;;;;5072837;28;20463;-71
2022/02/02 10:19:32;;;;;;;71.20;6.10;;;;;;;;;;5072422;28;20826;-71
2022/02/02 10:22:00;;;;;;;62.60;5.00;;;;;;;;;;5070528;28;20451;-71
2022/02/02 10:24:41;;;;;;;64.80;4.37;;;;;;;;;;5072147;28;20863;-72
2022/02/02 10:27:21;;;;;;;66.97;4.80;;;;;;;;;;5072517;28;20443;-71
2022/02/02 10:29:49;;;;;;;70.97;5.50;;;;;;;;;;5072663;28;20474;-73
2022/02/02 10:32:36;;;;;;;67.57;5.37;;;;;;;;;;5072104;28;20526;-72
2022/02/02 10:35:04;;;;;;;68.10;4.80;;;;;;;;;;5072604;28;20442;-71
2022/02/02 10:37:33;;;;;;;66.23;4.93;;;;;;;;;;5071891;28;20530;-72
2022/02/02 10:40:00;;;;;;;66.40;4.47;;;;;;;;;;5072429;28;20942;-72
2022/02/02 10:42:35;;;;;;;67.83;4.67;;;;;;;;;;5072483;28;20447;-72
2022/02/02 10:45:17;;;;;;;66.00;4.43;;;;;;;;;;5071965;28;20809;-71
2022/02/02 10:47:47;;;;;;;70.17;4.37;;;;;;;;;;5071919;28;20586;-69
2022/02/02 10:50:24;;;;;;;67.63;5.30;;;;;;;;;;5072548;28;20443;-71
2022/02/02 10:53:29;;;;;;;67.57;5.13;;;;;;;;;;5071998;28;20476;-71
2022/02/02 10:56:17;;;;;;;66.33;5.63;;;;;;;;;;5072230;28;20479;-70
2022/02/02 11:01:41;;;;;;;66.90;5.17;;;;;;;;;;5060954;28;20798;-71
2022/02/02 11:07:09;;;;;;;65.00;5.40;;;;;;;;;;5029421;28;20434;-69
2022/02/02 11:09:37;;;;;;;73.90;5.03;;;;;;;;;;5029552;28;20484;-71
2022/02/02 11:12:05;;;;;;;64.40;5.03;;;;;;;;;;5048205;28;20443;-68
2022/02/02 11:14:37;;;;;;;64.83;5.43;;;;;;;;;;5071765;28;20476;-72
2022/02/02 11:17:08;;;;;;;66.77;5.10;;;;;;;;;;5071694;28;20534;-72
2022/02/02 11:19:38;;;;;;;67.67;5.37;;;;;;;;;;5071627;28;21142;-72
2022/02/02 11:22:30;;;;;;;63.10;4.20;;;;;;;;;;5069895;28;20784;-72
2022/02/02 11:24:58;;;;;;;67.77;4.73;;;;;;;;;;5071343;28;20487;-73
2022/02/02 11:27:34;;;;;;;66.90;5.10;;;;;;;;;;5071355;28;20786;-70
2022/02/02 11:30:02;;;;;;;67.83;5.10;;;;;;;;;;5071806;28;20459;-71
2022/02/02 11:32:40;;;;;;;66.23;4.77;;;;;;;;;;5071464;28;20443;-71
2022/02/02 11:35:33;;;;;;;66.50;5.00;;;;;;;;;;5071386;28;20440;-71
2022/02/02 11:38:04;;;;;;;69.87;4.73;;;;;;;;;;5071393;28;20496;-70
2022/02/02 11:40:36;;;;;;;72.63;5.63;;;;;;;;;;5071642;28;20459;-70
2022/02/02 11:43:10;;;;;;;65.97;4.83;;;;;;;;;;5071915;28;20468;-72
2022/02/02 11:45:40;;;;;;;66.10;4.60;;;;;;;;;;5071208;28;20847;-72
2022/02/02 11:48:14;;;;;;;68.83;5.93;;;;;;;;;;5071505;28;20472;-72
2022/02/02 11:50:48;;;;;;;71.03;6.60;;;;;;;;;;5071237;28;20454;-72
2022/02/02 11:53:30;;;;;;;66.57;4.73;;;;;;;;;;5054979;28;20548;-71
2022/02/02 11:56:06;;;;;;;63.93;4.20;;;;;;;;;;5050935;28;20948;-72
2022/02/02 11:58:34;;;;;;;63.90;4.40;;;;;;;;;;5051275;28;20532;-72
2022/02/02 12:01:11;;;;;;;63.73;4.80;;;;;;;;;;5051416;28;20444;-73
2022/02/02 12:04:06;;;;;;;70.20;4.80;;;;;;;;;;5051215;28;20468;-71
2022/02/02 12:09:23;;;;;;;61.80;4.03;;;;;;;;;;5049001;28;20449;-73
2022/02/02 12:47:58;;;;;;;65.97;4.37;;;;;;;;;;5032975;28;20433;-72
2022/02/02 12:53:59;;;;;;;76.13;5.30;;;;;;;;;;5054215;28;20453;-72
2022/02/02 12:56:38;;;;;;;62.40;4.70;;;;;;;;;;5052692;28;20453;-72
2022/02/02 13:02:09;;;;;;;65.57;5.10;;;;;;;;;;5054198;28;20463;-72
2022/02/02 13:04:37;;;;;;;71.97;6.93;;;;;;;;;;5053788;28;20547;-72
2022/02/02 13:07:11;;;;;;;65.43;4.40;;;;;;;;;;5054161;28;20476;-72
2022/02/02 13:09:38;;;;;;;69.93;5.90;;;;;;;;;;5054115;28;20454;-72
2022/02/02 13:12:39;;;;;;;63.73;4.10;;;;;;;;;;5053890;28;20953;-72
2022/02/02 13:20:46;;;;;;;68.70;4.67;;;;;;;;;;5053442;28;20484;-72
2022/02/02 13:23:19;;;;;;;61.17;4.13;;;;;;;;;;5053458;28;20506;-71
2022/02/02 13:25:51;;;;;;;65.93;5.70;;;;;;;;;;5053357;28;21062;-71
2022/02/02 13:28:33;;;;;;;64.13;4.57;;;;;;;;;;5071187;28;20456;-71
2022/02/02 13:31:00;;;;;;;66.10;5.40;;;;;;;;;;5073544;28;20487;-71
2022/02/02 13:33:36;;;;;;;69.53;5.73;;;;;;;;;;5073352;28;21015;-71
2022/02/02 13:36:16;;;;;;;68.80;4.70;;;;;;;;;;5073361;28;20436;-71
2022/02/02 13:44:37;;;;;;;69.77;5.03;;;;;;;;;;5071998;28;20466;-72
2022/02/02 13:47:35;;;;;;;62.73;4.40;;;;;;;;;;5073180;28;20482;-72
2022/02/02 13:50:25;;;;;;;65.77;4.77;;;;;;;;;;5073151;28;20463;-72
2022/02/02 13:53:00;;;;;;;72.37;5.03;;;;;;;;;;5072822;28;20852;-71
2022/02/02 13:55:41;;;;;;;62.07;4.93;;;;;;;;;;5073367;28;20452;-71
2022/02/02 13:58:41;;;;;;;63.93;4.90;;;;;;;;;;5070988;28;20544;-72
2022/02/02 14:01:16;;;;;;;62.90;4.97;;;;;;;;;;5073030;28;20459;-71
2022/02/02 14:04:06;;;;;;;70.73;4.70;;;;;;;;;;5073071;28;20846;-71
2022/02/02 14:06:43;;;;;;;66.43;5.20;;;;;;;;;;5073046;28;20495;-72
2022/02/02 14:09:16;;;;;;;67.13;4.97;;;;;;;;;;5072411;28;20497;-72
2022/02/02 14:31:12;;;;;;;65.00;3.97;;;;;;;;;;5039942;28;20436;-70
2022/02/02 14:33:41;;;;;;;66.90;4.10;;;;;;;;;;5051888;28;20461;-71
2022/02/02 14:36:10;;;;;;;61.50;3.70;;;;;;;;;;5052528;28;20520;-72
2022/02/02 14:38:44;;;;;;;60.90;3.80;;;;;;;;;;5052167;28;20544;-71
2022/02/02 14:41:29;;;;;;;61.50;4.23;;;;;;;;;;5052621;28;20428;-72
2022/02/02 14:44:01;;;;;;;64.10;4.27;;;;;;;;;;5052247;28;20468;-72
2022/02/02 14:46:30;;;;;;;65.70;4.27;;;;;;;;;;5052554;28;21019;-72
2022/02/02 14:49:04;;;;;;;61.07;3.83;;;;;;;;;;5052962;28;20498;-71
2022/02/02 14:51:50;;;;;;;66.13;4.10;;;;;;;;;;5073721;28;20479;-72
2022/02/02 14:54:35;;;;;;;63.07;4.07;;;;;;;;;;5072364;28;20511;-71
2022/02/02 15:28:08;;;;;;;66.90;4.70;;;;;;;;;;5088756;28;20485;-70
2022/02/02 15:30:46;;;;;;;68.07;5.03;;;;;;;;;;5088800;28;20556;-71
2022/02/02 15:33:18;;;;;;;64.90;4.87;;;;;;;;;;5086698;28;20475;-71
2022/02/02 15:35:47;;;;;;;66.80;5.13;;;;;;;;;;5089105;28;20443;-72
2022/02/02 15:38:19;;;;;;;66.60;4.50;;;;;;;;;;5088588;28;20442;-70
2022/02/02 15:40:52;;;;;;;63.27;4.93;;;;;;;;;;5088827;28;20462;-70
2022/02/02 15:43:36;;;;;;;63.07;5.70;;;;;;;;;;5088759;28;20463;-70
2022/02/02 16:03:02;;;;;;;59.97;4.90;;;;;;;;;;5086104;28;20427;-71
2022/02/02 16:05:34;;;;;;;68.40;5.27;;;;;;;;;;5088256;28;20451;-71
2022/02/02 16:08:06;;;;;;;60.63;4.47;;;;;;;;;;5087867;28;20490;-71
2022/02/02 16:10:44;;;;;;;65.10;4.60;;;;;;;;;;5088345;28;20480;-71
2022/02/02 16:13:27;;;;;;;63.50;5.03;;;;;;;;;;5088100;28;20983;-71
2022/02/02 16:15:58;;;;;;;61.63;4.90;;;;;;;;;;5088429;28;20448;-71
2022/02/02 16:18:40;;;;;;;62.43;4.70;;;;;;;;;;5082915;28;20933;-72
2022/02/02 16:38:03;;;;;;;62.60;4.70;;;;;;;;;;5006699;28;20443;-72
2022/02/02 16:40:33;;;;;;;67.60;5.07;;;;;;;;;;5012188;28;20501;-72
2022/02/02 16:43:13;;;;;;;61.53;4.93;;;;;;;;;;5012275;28;20549;-72
2022/02/02 16:45:43;;;;;;;60.47;4.40;;;;;;;;;;5012297;28;20476;-72
2022/02/02 16:48:10;;;;;;;67.20;5.63;;;;;;;;;;5011692;28;20589;-71
2022/02/02 16:50:40;;;;;;;61.90;5.03;;;;;;;;;;5011969;28;20446;-72
2022/02/02 16:53:12;;;;;;;65.23;5.80;;;;;;;;;;5011811;28;20228;-72
2022/02/02 16:55:47;;;;;;;62.47;5.00;;;;;;;;;;5011841;28;20545;-72
2022/02/02 17:24:16;;;;;;;61.85;5.10;;;;;;;;;;5011470;28;20568;-72
2022/02/02 17:31:45;;;;;;;63.50;5.23;;;;;;;;;;5052125;28;20178;-71
2022/02/02 17:34:22;;;;;;;68.07;5.55;;;;;;;;;;5053188;28;20464;-72
2022/02/02 17:36:55;;;;;;;63.38;5.82;;;;;;;;;;5051483;28;20210;-72
2022/02/02 17:39:32;;;;;;;61.85;5.85;;;;;;;;;;5053262;28;20264;-72
2022/02/02 17:42:26;;;;;;;62.30;5.30;;;;;;;;;;5052998;28;20212;-72
2022/02/02 17:45:22;;;;;;;61.65;5.05;;;;;;;;;;5053211;28;20210;-71
2022/02/02 18:13:03;;;;;;;75.80;12.50;;;;;;;;;;5089270;28;20462;-69
2022/02/02 18:21:10;;;;;;;67.30;8.40;;;;;;;;;;5088994;28;20264;-72
2022/02/02 18:23:46;;;;;;;69.43;8.35;;;;;;;;;;5089122;28;20271;-72
2022/02/02 18:26:19;;;;;;;64.38;6.30;;;;;;;;;;5089021;28;20265;-72
2022/02/02 18:28:53;;;;;;;60.97;5.40;;;;;;;;;;5088738;28;20717;-71
2022/02/02 18:31:36;;;;;;;61.45;5.13;;;;;;;;;;5089225;28;20580;-71
2022/02/02 18:34:14;;;;;;;67.28;7.07;;;;;;;;;;5088849;28;20225;-72
2022/02/02 18:36:49;;;;;;;64.60;6.07;;;;;;;;;;5089070;28;20209;-72
2022/02/02 18:45:25;;;;;;;63.37;6.37;;;;;;;;;;5083179;28;20438;-72
2022/02/02 18:48:02;;;;;;;64.00;7.38;;;;;;;;;;5088303;28;20901;-72
2022/02/02 18:50:52;;;;;;;62.80;5.63;;;;;;;;;;5088320;28;20201;-72
2022/02/02 18:56:29;;;;;;;61.83;5.95;;;;;;;;;;5045924;28;20429;-73
2022/02/02 18:59:06;;;;;;;62.07;5.80;;;;;;;;;;5081290;28;20677;-70
2022/02/02 19:01:41;;;;;;;63.35;7.28;;;;;;;;;;5088064;28;20866;-70
2022/02/02 19:04:34;;;;;;;63.47;6.67;;;;;;;;;;5088458;28;20229;-71
2022/02/02 19:07:41;;;;;;;63.23;5.60;;;;;;;;;;5088113;28;20806;-73
2022/02/02 19:37:48;;;;;;;62.92;5.50;;;;;;;;;;5053922;28;20244;-70
2022/02/02 19:40:20;;;;;;;63.78;5.90;;;;;;;;;;5054398;28;20317;-70
2022/02/02 19:56:53;;;;;;;70.25;11.35;;;;;;;;;;5053792;28;20200;-71
2022/02/02 20:02:28;;;;;;;261.58;91.68;;;;;;;;;;5073665;28;20286;-70
2022/02/02 20:05:16;;;;;;;115.95;30.95;;;;;;;;;;5073463;28;20209;-70
2022/02/02 20:10:35;;;;;;;94.95;20.05;;;;;;;;;;5073202;28;20198;-70
2022/02/02 20:13:03;;;;;;;94.00;19.20;;;;;;;;;;5073340;28;20315;-70
2022/02/02 20:15:36;;;;;;;74.55;11.55;;;;;;;;;;5073388;28;20212;-71
2022/02/02 20:18:04;;;;;;;87.55;17.42;;;;;;;;;;5072918;28;20608;-71
2022/02/02 20:20:35;;;;;;;91.03;18.42;;;;;;;;;;5073263;28;20661;-71
2022/02/02 20:23:03;;;;;;;87.53;18.67;;;;;;;;;;5072182;28;20221;-71
2022/02/02 20:25:32;;;;;;;79.90;15.38;;;;;;;;;;5073213;28;20240;-70
2022/02/02 20:28:05;;;;;;;78.55;14.50;;;;;;;;;;5072803;28;20212;-71
2022/02/02 20:30:34;;;;;;;82.57;15.52;;;;;;;;;;5070454;28;20217;-71
2022/02/02 20:33:01;;;;;;;80.57;15.63;;;;;;;;;;5073083;28;20312;-71
2022/02/02 20:35:28;;;;;;;80.85;16.08;;;;;;;;;;5073011;28;20206;-70
2022/02/02 20:37:55;;;;;;;83.32;17.98;;;;;;;;;;5072581;28;20297;-70
2022/02/02 20:40:24;;;;;;;88.97;17.55;;;;;;;;;;5072796;28;20312;-71
2022/02/02 20:42:59;;;;;;;86.13;18.88;;;;;;;;;;5072560;28;20225;-71
2022/02/02 20:45:59;;;;;;;80.07;16.63;;;;;;;;;;5072985;28;20454;-71
2022/02/02 21:04:57;;;;;;;75.72;12.13;;;;;;;;;;5049422;28;20251;-71
2022/02/02 21:07:49;;;;;;;71.68;12.75;;;;;;;;;;5072147;28;20219;-71
2022/02/02 21:10:20;;;;;;;70.95;12.05;;;;;;;;;;5072609;28;20201;-71
2022/02/02 21:15:35;;;;;;;77.63;13.38;;;;;;;;;;5072782;28;20201;-71
2022/02/02 21:18:08;;;;;;;70.55;12.40;;;;;;;;;;5072471;28;20214;-71
2022/02/02 21:20:42;;;;;;;75.03;12.82;;;;;;;;;;5072401;28;20232;-71
2022/02/02 21:23:27;;;;;;;72.15;11.90;;;;;;;;;;5072359;28;20278;-71
2022/02/02 21:26:13;;;;;;;72.00;11.77;;;;;;;;;;5072718;28;20210;-71
2022/02/02 21:28:40;;;;;;;75.85;12.95;;;;;;;;;;5072117;28;20237;-71
2022/02/02 21:31:08;;;;;;;70.00;11.20;;;;;;;;;;5072399;28;20196;-71
2022/02/02 21:33:38;;;;;;;70.28;11.68;;;;;;;;;;5063033;28;20736;-70
2022/02/02 21:36:09;;;;;;;72.90;11.77;;;;;;;;;;5052513;28;20275;-71
2022/02/02 21:38:43;;;;;;;68.55;9.95;;;;;;;;;;5051924;28;20640;-71
2022/02/02 21:41:17;;;;;;;70.55;12.10;;;;;;;;;;5052164;28;20246;-70
2022/02/02 21:43:44;;;;;;;71.28;11.65;;;;;;;;;;5051881;28;20233;-70
2022/02/02 21:46:11;;;;;;;68.78;10.00;;;;;;;;;;5052241;28;20693;-70
2022/02/02 21:48:41;;;;;;;68.40;10.82;;;;;;;;;;5051898;28;20791;-71
2022/02/02 21:51:20;;;;;;;70.43;11.25;;;;;;;;;;5052106;28;20577;-71
2022/02/02 21:53:47;;;;;;;67.20;10.57;;;;;;;;;;5051851;28;20233;-71
2022/02/02 21:56:14;;;;;;;72.90;12.50;;;;;;;;;;5052097;28;20216;-71
2022/02/02 21:58:41;;;;;;;75.65;13.07;;;;;;;;;;5052104;28;20586;-71
2022/02/02 22:01:08;;;;;;;73.70;13.10;;;;;;;;;;5051757;28;20714;-71
2022/02/02 22:03:36;;;;;;;68.43;11.60;;;;;;;;;;5051634;28;20748;-71
2022/02/02 22:06:03;;;;;;;70.35;11.18;;;;;;;;;;5050235;28;20209;-71
2022/02/02 22:08:31;;;;;;;70.95;11.93;;;;;;;;;;5051370;28;20206;-71
2022/02/02 22:10:58;;;;;;;76.32;12.13;;;;;;;;;;5051831;28;20212;-70
2022/02/02 22:13:35;;;;;;;70.10;11.52;;;;;;;;;;5051650;28;20222;-70
2022/02/02 22:16:07;;;;;;;67.13;10.50;;;;;;;;;;5051778;28;20209;-71
2022/02/02 22:18:35;;;;;;;73.90;12.20;;;;;;;;;;5051716;28;20818;-71
2022/02/02 22:21:02;;;;;;;68.68;12.50;;;;;;;;;;5051475;28;20702;-70
2022/02/02 22:23:29;;;;;;;72.82;12.77;;;;;;;;;;5051769;28;20226;-71
2022/02/02 22:25:58;;;;;;;76.63;12.95;;;;;;;;;;5052002;28;20361;-71
2022/02/02 22:28:25;;;;;;;75.15;12.02;;;;;;;;;;5051562;28;20293;-71
2022/02/02 22:30:52;;;;;;;71.88;11.93;;;;;;;;;;5052229;28;20202;-71
2022/02/02 22:33:19;;;;;;;71.38;11.82;;;;;;;;;;5051454;28;20230;-70
2022/02/02 22:35:47;;;;;;;67.32;10.73;;;;;;;;;;5050639;28;20213;-71
2022/02/02 22:38:14;;;;;;;66.90;10.40;;;;;;;;;;5070746;28;20208;-71
2022/02/02 22:40:42;;;;;;;69.93;11.73;;;;;;;;;;5071478;28;20221;-71
2022/02/02 22:43:11;;;;;;;71.18;10.73;;;;;;;;;;5071412;28;20233;-71
2022/02/02 22:45:41;;;;;;;71.18;12.00;;;;;;;;;;5071803;28;20206;-70
2022/02/02 22:48:09;;;;;;;68.07;10.10;;;;;;;;;;5074306;28;20674;-69
2022/02/02 22:50:36;;;;;;;70.00;11.40;;;;;;;;;;5075446;28;20296;-69
2022/02/02 22:53:03;;;;;;;67.32;10.85;;;;;;;;;;5075057;28;20248;-69
2022/02/02 22:55:31;;;;;;;69.20;11.07;;;;;;;;;;5075191;28;20288;-69
2022/02/02 22:57:58;;;;;;;73.15;11.90;;;;;;;;;;5075264;28;20244;-70
2022/02/02 23:00:33;;;;;;;67.40;10.88;;;;;;;;;;5074601;28;20233;-69
2022/02/02 23:03:01;;;;;;;72.68;10.45;;;;;;;;;;5074837;28;20252;-69